Tiempo atmosférico en la estación meteorológica de El Maíllo, Salamanca (1027 m.)



Fecha
DESCASC
Temp. máxima en grados centígrados (hora)
DESCASC
Temp. mínima en grados centígrados (hora)
DESCASC
Temp. media en grados centígrados
DESCASC
Racha de viento máxima en m/sg (hora)
DESCASC
Velocidad máxima media en intervalos de 10 minutos(hora)
DESCASC
Precipitaciones diarias en mm
DESCASC
Precipitaciones de 00:00 a 06:00 en mm
DESCASC
Precipitaciones de 06:00 a 12:00 en mm
DESCASC
Precipitaciones de 12:00 a 18:00 en mm
DESCASC
Precipitaciones de 18:00 a 24:00 en mm
DESCASC
19-01-2020 5.8 (15:20) -1.3 (23:59) 2.3 21.39 (13:20) 14.72 (13:40) 0.6 0.4 0.2 0 0
18-01-2020 11.1 (14:00) 3.4 (23:40) 7.3 20 (08:00) 12.78 (08:00) 7.4 5.8 0.6 0 1
17-01-2020 9 (16:00) 3.4 (19:20) 6.2 10.56 (02:20) 6.39 (04:40) 1 0 1 0 0
16-01-2020 8.6 (13:20) 6 (00:00) 7.3 20 (18:10) 12.5 (18:50) 3 0 0.6 0 2.4
15-01-2020 9.4 (16:30) 5.1 (00:00) 7.2 22.5 (07:00) 14.17 (06:40) 2 0 1.6 0.4 0
14-01-2020 7.5 (15:40) -2.8 (-00:0) 2.4 18.33 (22:00) 11.11 (21:50) 0 0 0 0 0
13-01-2020 10.3 (16:10) -1.9 (-00:0) 4.2 6.39 (20:40) 3.89 (15:40) 0 0 0 0 0
12-01-2020 10.2 (16:00) -1 (04:30) 4.6 5.83 (00:10) 5.28 (00:10) 0 0 0 0 0
11-01-2020 9.9 (14:50) 0 (00:00) 4.9 11.94 (01:00) 7.78 (00:20) 0 0 0 0 0
10-01-2020 6.2 (15:00) -0.6 (-00:0) 2.8 11.11 (23:50) 7.78 (13:40) 0 0 0 0 0
09-01-2020 12.2 (15:40) 2.4 (00:00) 7.3 11.67 (17:20) 6.94 (17:20) 0 0 0 0 0
08-01-2020 12.8 (12:50) 1 (00:00) 6.9 4.17 (04:40) 3.33 (04:50) 0 0 0 0 0
07-01-2020 13.6 (13:40) 0.3 (00:00) 7 5.83 (07:50) 4.72 (07:50) 0 0 0 0 0
06-01-2020 13.8 (13:30) 0.7 (00:00) 7.3 6.11 (19:10) 5.28 (04:10) 0 0 0 0 0
05-01-2020 5.8 (16:20) -3.7 (-00:0) 1.1 5.83 (22:40) 5 (22:40) 0 0 0 0 0
04-01-2020 5.2 (15:10) -0.9 (-00:0) 2.1 10.28 (13:10) 6.67 (13:20) 0 0 0 0 0
03-01-2020 7.4 (17:10) -0.6 (-00:0) 3.4 5.56 (15:00) 3.89 (15:20) 0 0 0 0 0
02-01-2020 14.4 (14:20) -0.6 (-00:0) 6.9 6.39 (14:20) 5.28 (07:50) 0 0 0 0 0
01-01-2020 16.2 (12:40) 3.3 (00:00) 9.8 6.39 (05:30) 5.56 (03:40) 0 0 0 0 0
31-12-2019 15.5 (12:20) 1.9 (00:00) 8.7 6.39 (21:50) 5.56 (20:50) 0 0 0 0 0
30-12-2019 -- (--) -- (--) -- -- (--) -- (--) -- 0 0 0 --
29-12-2019 18.1 (13:10) 4.1 (00:00) 11.1 6.67 (06:50) 6.11 (07:00) 0 0 0 0 0
28-12-2019 17.2 (14:30) 3.7 (00:00) 10.5 6.39 (02:50) 5.56 (02:40) 0 0 0 0 0
27-12-2019 13.5 (12:00) 1.3 (00:00) 7.4 6.67 (23:50) 5.28 (23:59) 0 0 0 0 0
26-12-2019 11.4 (15:40) 1.8 (00:00) 6.6 6.94 (13:50) 4.44 (14:00) 0 0 0 0 0
25-12-2019 17.8 (13:20) 7.9 (00:00) 12.8 10.28 (21:20) 6.39 (16:20) 0 0 0 0 0
24-12-2019 15.7 (13:10) 7.2 (09:20) 11.4 7.5 (01:40) 5 (01:40) 0 0 0 0 0
23-12-2019 14.3 (15:40) 2.7 (00:00) 8.5 6.94 (08:00) 4.44 (10:30) 0 0 0 0 0
22-12-2019 10.6 (14:50) 4.5 (23:59) 7.6 19.72 (00:10) 13.61 (00:10) 1.2 0.2 0.4 0.6 0

Gráficas

Temp. máximas Temp. mínimas Temp. medias Precipitaciones Rachas de viento máximas Velocidades máximas media en intervalos de 10 minutos

Datos horarios

Fecha y hora oficial Temperatura (ºC) Velocidad del viento (km/h) Dirección del viento Racha (km/h) Dirección de racha Precipitación (mm) Presión (hPa) Tendencia (hPa) Humedad (%)
2020-01-20 23:00:00 -1.6 23 Este 51 Nordeste 0 -- -- 79
2020-01-20 22:00:00 -1 32 Nordeste 50 Nordeste 0 -- -- 75
2020-01-20 21:00:00 -0.9 19 Nordeste 40 Nordeste 0 -- -- 76
2020-01-20 20:00:00 -0.5 25 Nordeste 48 Nordeste 0 -- -- 72
2020-01-20 19:00:00 -0.4 22 Nordeste 43 Nordeste 0 -- -- 71
2020-01-20 18:00:00 0.1 23 Nordeste 35 Nordeste 0 -- -- 66
2020-01-20 17:00:00 0.8 19 Nordeste 45 Nordeste 0 -- -- 63
2020-01-20 16:00:00 0.6 28 Nordeste 51 Nordeste 0 -- -- 65
2020-01-20 15:00:00 0.4 31 Nordeste 52 Nordeste 0 -- -- 64
2020-01-20 14:00:00 -0.5 35 Nordeste 62 Nordeste 0 -- -- 66
2020-01-20 13:00:00 0.4 27 Nordeste 62 Nordeste 0 -- -- 64
2020-01-20 12:00:00 -0.8 40 Nordeste 62 Nordeste 0 -- -- 68
2020-01-20 11:00:00 -1.8 35 Nordeste 55 Este 0 -- -- 72
2020-01-20 10:00:00 -2.4 31 Nordeste 63 Nordeste 0 -- -- 75
2020-01-20 09:00:00 -2.8 30 Nordeste 53 Nordeste 0 -- -- 76
2020-01-20 08:00:00 -2.7 27 Este 64 Este 0 -- -- 77
2020-01-20 07:00:00 -2.5 41 Nordeste 70 Este 0 -- -- 76
2020-01-20 06:00:00 -2.1 28 Este 46 Este 0 -- -- 72
2020-01-20 05:00:00 -1.9 25 Este 57 Sudeste 0 -- -- 71
2020-01-20 04:00:00 -1.7 28 Este 48 Nordeste 0 -- -- 71
2020-01-20 03:00:00 -1.5 27 Este 44 Nordeste 0 -- -- 71
2020-01-20 02:00:00 -1.6 22 Este 51 Nordeste 0 -- -- 74
2020-01-20 01:00:00 -1.4 33 Nordeste 59 Nordeste 0 -- -- 76
2020-01-20 00:00:00 -1.3 27 Nordeste 58 Nordeste 0 -- -- 75
2020-01-19 23:00:00 -1 36 Nordeste 53 Nordeste 0 -- -- 72
2020-01-19 22:00:00 -0.8 34 Nordeste 58 Nordeste 0 -- -- 70
2020-01-19 21:00:00 -0.5 31 Nordeste 64 Nordeste 0 -- -- 68
2020-01-19 20:00:00 0.3 34 Nordeste 55 Nordeste 0 -- -- 65
2020-01-19 19:00:00 1.2 35 Nordeste 66 Nordeste 0 -- -- 64
2020-01-19 18:00:00 2.8 40 Nordeste 75 Nordeste 0 -- -- 59
2020-01-19 17:00:00 4.5 49 Nordeste 71 Nordeste 0 -- -- 53
2020-01-19 16:00:00 5.4 43 Nordeste 69 Nordeste 0 -- -- 56
2020-01-19 15:00:00 5.5 50 Nordeste 72 Nordeste 0 -- -- 51
2020-01-19 14:00:00 5.3 48 Nordeste 77 Nordeste 0 -- -- 53
2020-01-19 13:00:00 5 45 Nordeste 67 Nordeste 0 -- -- 66
2020-01-19 12:00:00 3.6 31 Nordeste 49 Nordeste 0 -- -- 84
2020-01-19 11:00:00 2.4 26 Nordeste 42 Nordeste 0.2 -- -- 98
2020-01-19 10:00:00 1.9 14 Nordeste 28 Nordeste 0 -- -- 99
2020-01-19 09:00:00 1.8 14 Nordeste 22 Nordeste 0 -- -- 99
2020-01-19 08:00:00 1.9 11 Nordeste 20 Nordeste 0 -- -- 99
2020-01-19 07:00:00 2.4 10 Nordeste 19 Norte 0 -- -- 99
2020-01-19 06:00:00 2.9 12 Norte 25 Norte 0 -- -- 99
2020-01-19 05:00:00 3.3 14 Norte 29 Noroeste 0 -- -- 99
2020-01-19 04:00:00 3.7 16 Noroeste 36 Noroeste 0 -- -- 99
2020-01-19 03:00:00 3.9 15 Noroeste 26 Noroeste 0 -- -- 99
2020-01-19 02:00:00 3.7 17 Oeste 28 Oeste 0.2 -- -- 98
2020-01-19 01:00:00 3.4 16 Oeste 25 Oeste 0.2 -- -- 97
2020-01-19 00:00:00 3.4 12 Sudoeste 23 Oeste 0 -- -- 95
2020-01-18 23:00:00 3.6 15 Oeste 33 Oeste 0 -- -- 94
2020-01-18 22:00:00 4.1 18 Oeste 40 Oeste 0.2 -- -- 95
2020-01-18 21:00:00 5.5 20 Oeste 46 Sudoeste 0.8 -- -- 94
2020-01-18 20:00:00 7 21 Oeste 41 Sudoeste 0 -- -- 84
2020-01-18 19:00:00 7.6 30 Sudoeste 49 Sudoeste 0 -- -- 87
2020-01-18 18:00:00 8 25 Sudoeste 52 Sudoeste 0 -- -- 86
2020-01-18 17:00:00 9 32 Sudoeste 45 Sudoeste 0 -- -- 82
2020-01-18 16:00:00 9.8 24 Sudoeste 44 Sudoeste 0 -- -- 81
2020-01-18 15:00:00 10.5 28 Sudoeste 61 Sur 0 -- -- 78
2020-01-18 14:00:00 11.1 29 Sudoeste 50 Sur 0 -- -- 75
2020-01-18 13:00:00 10.6 31 Sur 50 Sur 0 -- -- 73
2020-01-18 12:00:00 9.3 36 Sur 55 Sur 0 -- -- 82
2020-01-18 11:00:00 8.9 32 Sur 57 Sur 0 -- -- 83
2020-01-18 10:00:00 6.2 40 Sur 61 Sur 0 -- -- 93
2020-01-18 09:00:00 6.1 38 Sur 71 Sur 0 -- -- 91
2020-01-18 08:00:00 6.2 46 Sur 72 Sudeste 0 -- -- 90
2020-01-18 07:00:00 5.6 9 Sur 36 Sur 0.6 -- -- 92
2020-01-18 06:00:00 4.8 16 Este 22 Este 1.6 -- -- 95
2020-01-18 05:00:00 5.1 6 Este 13 Sur 2.8 -- -- 91
2020-01-18 04:00:00 5.6 4 Sur 25 Sur 1.4 -- -- 90
2020-01-18 03:00:00 7 16 Sur 32 Sur 0 -- -- 79
2020-01-18 02:00:00 6.3 19 Sur 41 Sur 0 -- -- 62
2020-01-18 01:00:00 6 6 Este 18 Norte 0 -- -- 76
2020-01-18 00:00:00 5.7 5 Norte 26 Este 0 -- -- 73
2020-01-17 23:00:00 5.5 5 Este 12 Sudoeste 0 -- -- 77
2020-01-17 22:00:00 4.3 0 Calma 7 Sur 0 -- -- 83
2020-01-17 21:00:00 4.6 3 Sur 14 Este 0 -- -- 82
2020-01-17 20:00:00 4 6 Este 15 Sudeste 0 -- -- 86
2020-01-17 19:00:00 3.8 6 Sur 12 Sudeste 0 -- -- 84
2020-01-17 18:00:00 7.7 2 Sur 9 Sudoeste 0 -- -- 68
2020-01-17 17:00:00 8.8 8 Oeste 21 Oeste 0 -- -- 60
2020-01-17 16:00:00 9 12 Oeste 26 Oeste 0 -- -- 59
2020-01-17 15:00:00 8.6 16 Oeste 26 Oeste 0 -- -- 61
2020-01-17 14:00:00 7.8 15 Oeste 26 Oeste 0 -- -- 72
2020-01-17 13:00:00 7.4 18 Oeste 29 Oeste 0 -- -- 77
2020-01-17 12:00:00 6.9 12 Oeste 21 Oeste 0 -- -- 86
2020-01-17 11:00:00 5.6 13 Oeste 28 Oeste 0 -- -- 95
2020-01-17 10:00:00 4.9 13 Sudoeste 28 Oeste 0.2 -- -- 97
2020-01-17 09:00:00 5.2 17 Oeste 31 Oeste 0.4 -- -- 97
2020-01-17 08:00:00 5.5 17 Sudoeste 36 Sudoeste 0.2 -- -- 95
2020-01-17 07:00:00 5.4 22 Sudoeste 31 Sudoeste 0.2 -- -- 94
2020-01-17 06:00:00 5.7 17 Sudoeste 36 Sudoeste 0 -- -- 88
2020-01-17 05:00:00 5.5 19 Sudoeste 34 Sudoeste 0 -- -- 88
2020-01-17 04:00:00 5.1 21 Sudoeste 31 Sur 0 -- -- 86
2020-01-17 03:00:00 5 15 Sudoeste 38 Sur 0 -- -- 84
2020-01-17 02:00:00 5.5 19 Sudoeste 33 Sudoeste 0 -- -- 83
2020-01-17 01:00:00 5.4 14 Sudoeste 30 Sur 0 -- -- 88
2020-01-17 00:00:00 6 18 Sur 30 Sur 0 -- -- 90
2020-01-16 23:00:00 6.4 20 Sudoeste 48 Sudoeste 0.2 -- -- 94
2020-01-16 22:00:00 6.6 30 Sudoeste 66 Sur 0.4 -- -- 90
2020-01-16 21:00:00 6.8 44 Sur 69 Sur 1.6 -- -- 88
2020-01-16 20:00:00 7.3 41 Sur 69 Sur 0.2 -- -- 82
2020-01-16 19:00:00 7.8 45 Sur 72 Sur 0 -- -- 73
2020-01-16 18:00:00 7.6 36 Sur 68 Sur 0 -- -- 72
2020-01-16 17:00:00 7.9 39 Sur 64 Sudoeste 0 -- -- 69
2020-01-16 16:00:00 8.3 31 Sur 66 Sur 0 -- -- 70
2020-01-16 15:00:00 8 30 Sur 57 Sudoeste 0 -- -- 69
2020-01-16 14:00:00 8 19 Sur 51 Sudeste 0 -- -- 73
2020-01-16 13:00:00 7.9 24 Sudoeste 54 Sur 0 -- -- 75
2020-01-16 12:00:00 8.1 37 Sur 63 Sur 0.2 -- -- 73
2020-01-16 11:00:00 7.3 30 Sur 60 Sur 0 -- -- 82
2020-01-16 10:00:00 6.9 28 Sur 52 Sudoeste 0 -- -- 84
2020-01-16 09:00:00 7.1 23 Sur 49 Sudoeste 0.2 -- -- 89
2020-01-16 08:00:00 7.5 23 Sudoeste 48 Sur 0 -- -- 92
2020-01-16 07:00:00 8.2 31 Sur 52 Sur 0.2 -- -- 88
2020-01-16 06:00:00 8 30 Sur 51 Sur 0 -- -- 91
2020-01-16 05:00:00 8 28 Sur 52 Sur 0 -- -- 89
2020-01-16 04:00:00 7.9 24 Sur 42 Sur 0 -- -- 91
2020-01-16 03:00:00 8.1 24 Sur 42 Sur 0 -- -- 89
2020-01-16 02:00:00 7.8 22 Sudoeste 47 Sudoeste 0 -- -- 91
2020-01-16 01:00:00 7.8 24 Sur 44 Sur 0 -- -- 89
2020-01-16 00:00:00 8.2 24 Sur 52 Sur 0 -- -- 87
2020-01-15 23:00:00 8.3 32 Sur 53 Sur 0 -- -- 88
2020-01-15 22:00:00 8.6 31 Sur 51 Sur 0 -- -- 87
2020-01-15 21:00:00 8.5 28 Sur 48 Sur 0 -- -- 89
2020-01-15 20:00:00 8.4 24 Sur 40 Sur 0 -- -- 88
2020-01-15 19:00:00 8.2 24 Sur 42 Sur 0 -- -- 87
2020-01-15 18:00:00 8 19 Sur 44 Sur 0 -- -- 89
2020-01-15 17:00:00 8.3 25 Sur 49 Sur 0 -- -- 87
2020-01-15 16:00:00 8.9 34 Sur 56 Sudoeste 0 -- -- 85
2020-01-15 15:00:00 9 33 Sur 47 Sur 0 -- -- 82
2020-01-15 14:00:00 8 28 Sur 44 Sur 0 -- -- 88
2020-01-15 13:00:00 8 31 Sur 53 Sur 0.4 -- -- 88
2020-01-15 12:00:00 7.1 29 Sur 53 Sur 1.4 -- -- 90
2020-01-15 11:00:00 6.5 34 Sur 64 Sur 0 -- -- 90
2020-01-15 10:00:00 6.2 37 Sur 63 Sur 0 -- -- 89
2020-01-15 09:00:00 5.3 40 Sur 78 Sur 0 -- -- 91
2020-01-15 08:00:00 5.8 36 Sur 73 Sur 0 -- -- 91
2020-01-15 07:00:00 5.3 45 Sur 81 Sur 0.2 -- -- 90
2020-01-15 06:00:00 5.2 41 Sur 69 Sur 0 -- -- 92
2020-01-15 05:00:00 5.3 32 Sur 67 Sur 0 -- -- 94
2020-01-15 04:00:00 5.6 42 Sur 64 Sur 0 -- -- 90
2020-01-15 03:00:00 5.6 33 Sur 65 Sudoeste 0 -- -- 89
2020-01-15 02:00:00 5.6 38 Sur 62 Sur 0 -- -- 88
2020-01-15 01:00:00 5.7 37 Sur 65 Sur 0 -- -- 89
2020-01-15 00:00:00 5.8 37 Sur 62 Sur 0 -- -- 88
2020-01-14 23:00:00 5.9 28 Sur 63 Sur 0 -- -- 88
2020-01-14 22:00:00 6.1 39 Sur 66 Sur 0 -- -- 84
2020-01-14 21:00:00 5.9 31 Sur 53 Sur 0 -- -- 87
2020-01-14 20:00:00 4.9 24 Sur 46 Sur 0 -- -- 86
2020-01-14 19:00:00 4.9 16 Sur 42 Sur 0 -- -- 86
2020-01-14 18:00:00 5.6 23 Sur 41 Sudeste 0 -- -- 84
2020-01-14 17:00:00 5.7 17 Sur 42 Sudoeste 0 -- -- 81
2020-01-14 16:00:00 7.2 25 Sur 42 Sur 0 -- -- 75
2020-01-14 15:00:00 6.1 25 Sur 53 Sur 0 -- -- 80
2020-01-14 14:00:00 6.2 19 Sur 36 Sudoeste 0 -- -- 80
2020-01-14 13:00:00 6.2 19 Sur 41 Sur 0 -- -- 79
2020-01-14 12:00:00 5.9 21 Sur 38 Sudoeste 0 -- -- 77
2020-01-14 11:00:00 5.5 23 Sudoeste 39 Sur 0 -- -- 80
2020-01-14 10:00:00 5.1 15 Sudoeste 26 Sur 0 -- -- 79
2020-01-14 09:00:00 4.6 9 Sudoeste 26 Sudoeste 0 -- -- 79
2020-01-14 08:00:00 4.5 10 Sudoeste 24 Sudoeste 0 -- -- 80
2020-01-14 07:00:00 4 14 Sudoeste 26 Sudoeste 0 -- -- 84
2020-01-14 06:00:00 2.6 13 Sur 23 Sur 0 -- -- 89
2020-01-14 05:00:00 -2.1 10 Sudoeste 19 Sudoeste 0 -- -- 94
2020-01-14 04:00:00 -2.1 3 Sudeste 12 Sudeste 0 -- -- 90
2020-01-14 03:00:00 -0.9 4 Sudeste 9 Sudeste 0 -- -- 92
2020-01-14 02:00:00 -2.1 4 Sudeste 13 Sur 0 -- -- 86
2020-01-14 01:00:00 -2.1 5 Sudeste 10 Sudeste 0 -- -- 87
2020-01-14 00:00:00 -1.9 0 Calma 13 Sudeste 0 -- -- 81
2020-01-13 23:00:00 -0.2 5 Este 15 Noroeste 0 -- -- 77
2020-01-13 22:00:00 -0.5 3 Sudeste 21 Norte 0 -- -- 74
2020-01-13 21:00:00 3.6 9 Noroeste 23 Sudoeste 0 -- -- 58
2020-01-13 20:00:00 0.1 5 Sudeste 9 Sur 0 -- -- 72
2020-01-13 19:00:00 1.8 5 Sur 15 Nordeste 0 -- -- 67
2020-01-13 18:00:00 6.3 5 Este 11 Oeste 0 -- -- 58
2020-01-13 17:00:00 9.5 6 Este 14 Sudoeste 0 -- -- 50
2020-01-13 16:00:00 9.8 9 Este 20 Nordeste 0 -- -- 37
2020-01-13 15:00:00 9 13 Norte 19 Norte 0 -- -- 49
2020-01-13 14:00:00 8.4 7 Nordeste 12 Nordeste 0 -- -- 54
2020-01-13 13:00:00 7.1 3 Norte 13 Noroeste 0 -- -- 59
2020-01-13 12:00:00 5.1 5 Noroeste 10 Noroeste 0 -- -- 64
2020-01-13 11:00:00 4 0 Calma 6 Sudeste 0 -- -- 63
2020-01-13 10:00:00 1.1 0 Calma 5 Sur 0 -- -- 74
2020-01-13 09:00:00 0.2 2 Este 9 Sudeste 0 -- -- 63
2020-01-13 08:00:00 -0.3 3 Este 9 Sudeste 0 -- -- 67
2020-01-13 07:00:00 -0.1 3 Sur 8 Nordeste 0 -- -- 60
2020-01-13 06:00:00 -0.2 4 Sudeste 10 Sudeste 0 -- -- 69
2020-01-13 05:00:00 0.1 5 Sudeste 10 Sudeste 0 -- -- 62
2020-01-13 04:00:00 -0.8 3 Sudeste 14 Sur 0 -- -- 66
2020-01-13 03:00:00 -1.1 3 Sudeste 10 Sur 0 -- -- 69
2020-01-13 02:00:00 -0.9 5 Sudeste 13 Sur 0 -- -- 67
2020-01-13 01:00:00 0.7 12 Sur 15 Sur 0 -- -- 56
2020-01-13 00:00:00 0.8 10 Sur 14 Sudeste 0 -- -- 55
2020-01-12 23:00:00 0.8 13 Sur 15 Sur 0 -- -- 52
2020-01-12 22:00:00 0.1 11 Sur 13 Sur 0 -- -- 55
2020-01-12 21:00:00 -0.8 6 Sur 15 Sur 0 -- -- 66
2020-01-12 20:00:00 -0.4 7 Sudeste 12 Sudeste 0 -- -- 79
2020-01-12 19:00:00 1.7 9 Sur 13 Sudeste 0 -- -- 74
2020-01-12 18:00:00 6.9 5 Sur 9 Oeste 0 -- -- 61
2020-01-12 17:00:00 9.3 6 Noroeste 12 Noroeste 0 -- -- 50
2020-01-12 16:00:00 10.2 2 Norte 11 Noroeste 0 -- -- 46
2020-01-12 15:00:00 9.3 4 Norte 13 Noroeste 0 -- -- 48
2020-01-12 14:00:00 9.3 6 Norte 12 Nordeste 0 -- -- 35
2020-01-12 13:00:00 9.2 4 Norte 6 Norte 0 -- -- 31
2020-01-12 12:00:00 6.9 3 Oeste 8 Noroeste 0 -- -- 45
2020-01-12 11:00:00 6.2 3 Sudoeste 8 Oeste 0 -- -- 49
2020-01-12 10:00:00 3.3 3 Sudoeste 16 Sur 0 -- -- 41
2020-01-12 09:00:00 0.9 12 Sudeste 15 Sudeste 0 -- -- 43
2020-01-12 08:00:00 -0.4 13 Sudeste 18 Sudeste 0 -- -- 49
2020-01-12 07:00:00 -1 9 Sur 19 Sur 0 -- -- 52
2020-01-12 06:00:00 -0.9 13 Sur 18 Sur 0 -- -- 51
2020-01-12 05:00:00 -0.4 9 Sudeste 14 Sur 0 -- -- 54
2020-01-12 04:00:00 -0.5 15 Sudeste 18 Sudeste 0 -- -- 60
2020-01-12 03:00:00 -0.6 16 Sur 18 Sur 0 -- -- 63
2020-01-12 02:00:00 -0.3 11 Sur 21 Sur 0 -- -- 69
2020-01-12 01:00:00 0.2 15 Sur 21 Sur 0 -- -- 71
2020-01-12 00:00:00 0 17 Sur 21 Sur 0 -- -- 76
2020-01-11 23:00:00 0.4 16 Sur 20 Sur 0 -- -- 77
2020-01-11 22:00:00 0.9 17 Sur 22 Sur 0 -- -- 77
2020-01-11 21:00:00 0.9 17 Sur 19 Sur 0 -- -- 82
2020-01-11 20:00:00 1.2 12 Sudeste 19 Sur 0 -- -- 84
2020-01-11 19:00:00 2.6 14 Sur 17 Sur 0 -- -- 84
2020-01-11 18:00:00 6.5 4 Sur 11 Noroeste 0 -- -- 69
2020-01-11 17:00:00 8.4 8 Oeste 15 Oeste 0 -- -- 67
2020-01-11 16:00:00 9.6 7 Noroeste 14 Noroeste 0 -- -- 59
2020-01-11 15:00:00 9.9 6 Noroeste 14 Norte 0 -- -- 49
2020-01-11 14:00:00 9.8 5 Norte 14 Norte 0 -- -- 48
2020-01-11 13:00:00 8.8 8 Nordeste 14 Nordeste 0 -- -- 50
2020-01-11 12:00:00 7.2 10 Nordeste 17 Nordeste 0 -- -- 52
2020-01-11 11:00:00 5.7 13 Este 24 Este 0 -- -- 60
2020-01-11 10:00:00 4.3 14 Este 22 Este 0 -- -- 63
2020-01-11 09:00:00 2 10 Este 18 Este 0 -- -- 72
2020-01-11 08:00:00 1.7 11 Este 17 Este 0 -- -- 68
2020-01-11 07:00:00 1.9 9 Este 20 Este 0 -- -- 71
2020-01-11 06:00:00 2.8 13 Este 27 Este 0 -- -- 68
2020-01-11 05:00:00 1.6 13 Este 20 Este 0 -- -- 78
2020-01-11 04:00:00 0.9 12 Este 19 Nordeste 0 -- -- 80
2020-01-11 03:00:00 2.3 10 Este 20 Este 0 -- -- 76
2020-01-11 02:00:00 2.1 9 Sudeste 40 Este 0 -- -- 80
2020-01-11 01:00:00 3.2 27 Este 43 Este 0 -- -- 76
2020-01-11 00:00:00 3.4 26 Este 40 Este 0 -- -- 76
2020-01-10 23:00:00 2.7 15 Este 31 Este 0 -- -- 76
2020-01-10 22:00:00 3.2 24 Este 35 Este 0 -- -- 77
2020-01-10 21:00:00 2.3 17 Este 30 Este 0 -- -- 80
2020-01-10 20:00:00 2.4 17 Este 30 Este 0 -- -- 80
2020-01-10 19:00:00 2.5 19 Este 35 Nordeste 0 -- -- 80
2020-01-10 18:00:00 4.3 17 Nordeste 32 Nordeste 0 -- -- 71
2020-01-10 17:00:00 5.7 20 Nordeste 33 Nordeste 0 -- -- 68
2020-01-10 16:00:00 6.2 21 Nordeste 33 Nordeste 0 -- -- 64
2020-01-10 15:00:00 6.2 22 Nordeste 36 Este 0 -- -- 66
2020-01-10 14:00:00 5.8 25 Este 40 Nordeste 0 -- -- 63
2020-01-10 13:00:00 4.8 24 Nordeste 40 Nordeste 0 -- -- 70
2020-01-10 12:00:00 4 23 Nordeste 35 Nordeste 0 -- -- 73
2020-01-10 11:00:00 3 22 Nordeste 30 Nordeste 0 -- -- 79
2020-01-10 10:00:00 1.6 16 Este 26 Este 0 -- -- 87
2020-01-10 09:00:00 -0.1 14 Este 22 Nordeste 0 -- -- 95
2020-01-10 08:00:00 -0.2 13 Este 20 Este 0 -- -- 96
2020-01-10 07:00:00 -0.2 8 Nordeste 14 Nordeste 0 -- -- 95
2020-01-10 06:00:00 0 7 Este 12 Este 0 -- -- 96
2020-01-10 05:00:00 -0.1 0 Calma 6 Sur 0 -- -- 94
2020-01-10 04:00:00 0.4 2 Sudoeste 10 Sur 0 -- -- 94
2020-01-10 03:00:00 -0.3 3 Sudoeste 9 Sudoeste 0 -- -- 95
2020-01-10 02:00:00 1 4 Sudoeste 12 Oeste 0 -- -- 94
2020-01-10 01:00:00 2.5 7 Oeste 17 Oeste 0 -- -- 94
2020-01-10 00:00:00 3.9 12 Noroeste 17 Noroeste 0 -- -- 94
2020-01-09 23:00:00 4.1 9 Oeste 17 Oeste 0 -- -- 94
2020-01-09 22:00:00 4.4 12 Oeste 20 Oeste 0 -- -- 93
2020-01-09 21:00:00 5.1 9 Sudoeste 17 Oeste 0 -- -- 92
2020-01-09 20:00:00 6.5 12 Oeste 36 Noroeste 0 -- -- 94
2020-01-09 19:00:00 8.6 22 Oeste 33 Oeste 0 -- -- 91
2020-01-09 18:00:00 9.4 19 Sudoeste 42 Oeste 0 -- -- 85
2020-01-09 17:00:00 10.4 21 Oeste 32 Sudoeste 0 -- -- 83
2020-01-09 16:00:00 12 16 Sudoeste 28 Sudoeste 0 -- -- 74
2020-01-09 15:00:00 11 14 Sudoeste 30 Oeste 0 -- -- 81
2020-01-09 14:00:00 10.1 16 Oeste 27 Oeste 0 -- -- 85
2020-01-09 13:00:00 8.9 13 Oeste 25 Oeste 0 -- -- 89
2020-01-09 12:00:00 9.3 9 Oeste 18 Oeste 0 -- -- 90
2020-01-09 11:00:00 8.8 9 Oeste 18 Oeste 0 -- -- 90
2020-01-09 10:00:00 7.6 6 Sudoeste 13 Sudeste 0 -- -- 84
2020-01-09 09:00:00 5.5 9 Sur 13 Sur 0 -- -- 69
2020-01-09 08:00:00 3.7 9 Sur 15 Sur 0 -- -- 60
2020-01-09 07:00:00 3.6 6 Sur 19 Sur 0 -- -- 61
2020-01-09 06:00:00 3.5 13 Sur 20 Sur 0 -- -- 68
2020-01-09 05:00:00 3.6 16 Sur 21 Sur 0 -- -- 73
2020-01-09 04:00:00 3 8 Sur 13 Sur 0 -- -- 69
2020-01-09 03:00:00 3.1 9 Sudeste 15 Sur 0 -- -- 76
2020-01-09 02:00:00 2.9 12 Sudeste 15 Sur 0 -- -- 80
2020-01-09 01:00:00 2.6 12 Sur 16 Sur 0 -- -- 70
2020-01-09 00:00:00 2.9 9 Sudeste 12 Sur 0 -- -- 66
2020-01-08 23:00:00 1.9 6 Sudeste 10 Sur 0 -- -- 76
2020-01-08 22:00:00 2.7 5 Sur 8 Sudeste 0 -- -- 71
2020-01-08 21:00:00 2.4 5 Sudeste 12 Sur 0 -- -- 78
2020-01-08 20:00:00 2.8 4 Sudeste 8 Sudeste 0 -- -- 83
2020-01-08 19:00:00 4.3 2 Sudeste 7 Sudeste 0 -- -- 82
2020-01-08 18:00:00 9.3 0 Calma 6 Norte 0 -- -- 64
2020-01-08 17:00:00 11.1 4 Norte 7 Norte 0 -- -- 59
2020-01-08 16:00:00 10.8 4 Norte 10 Norte 0 -- -- 62
2020-01-08 15:00:00 11.1 4 Norte 9 Noroeste 0 -- -- 56
2020-01-08 14:00:00 11.9 5 Norte 9 Norte 0 -- -- 54
2020-01-08 13:00:00 12.7 5 Norte 9 Norte 0 -- -- 42
2020-01-08 12:00:00 12 7 Nordeste 11 Nordeste 0 -- -- 30
2020-01-08 11:00:00 10.2 8 Nordeste 11 Este 0 -- -- 34
2020-01-08 10:00:00 4.8 6 Este 9 Este 0 -- -- 49
2020-01-08 09:00:00 2.9 6 Este 12 Nordeste 0 -- -- 39
2020-01-08 08:00:00 5.2 9 Nordeste 12 Este 0 -- -- 29
2020-01-08 07:00:00 2.3 4 Este 14 Sur 0 -- -- 39
2020-01-08 06:00:00 2.8 11 Sur 14 Sur 0 -- -- 34
2020-01-08 05:00:00 3.3 12 Sudeste 15 Sudeste 0 -- -- 35
2020-01-08 04:00:00 2.5 7 Este 14 Este 0 -- -- 44
2020-01-08 03:00:00 3.3 11 Este 13 Este 0 -- -- 36
2020-01-08 02:00:00 1.3 7 Sudeste 10 Este 0 -- -- 51
2020-01-08 01:00:00 1.4 9 Sudeste 14 Sudeste 0 -- -- 51
2020-01-08 00:00:00 1.7 10 Sudeste 12 Sudeste 0 -- -- 46
2020-01-07 23:00:00 2.7 7 Sudeste 16 Sudeste 0 -- -- 44
2020-01-07 22:00:00 3.4 9 Sur 19 Sur 0 -- -- 40
2020-01-07 21:00:00 3.8 16 Sur 19 Sur 0 -- -- 40
2020-01-07 20:00:00 4.2 14 Sudeste 19 Sudeste 0 -- -- 41
2020-01-07 19:00:00 3 6 Sudeste 13 Sudeste 0 -- -- 66
2020-01-07 18:00:00 7 5 Sudeste 9 Sur 0 -- -- 69
2020-01-07 17:00:00 10.5 4 Norte 8 Noroeste 0 -- -- 64
2020-01-07 16:00:00 11.4 2 Norte 8 Norte 0 -- -- 60
2020-01-07 15:00:00 11.7 3 Noroeste 13 Noroeste 0 -- -- 56
2020-01-07 14:00:00 12.8 9 Noroeste 12 Noroeste 0 -- -- 48
2020-01-07 13:00:00 12.3 0 Calma 8 Norte 0 -- -- 36
2020-01-07 12:00:00 10.1 0 Calma 5 Oeste 0 -- -- 42
2020-01-07 11:00:00 7.2 5 Noroeste 14 Sudeste 0 -- -- 53
2020-01-07 10:00:00 5.7 13 Sur 19 Sudeste 0 -- -- 49
2020-01-07 09:00:00 1.2 6 Este 15 Sudeste 0 -- -- 60
2020-01-07 08:00:00 4.3 15 Sudeste 21 Sur 0 -- -- 50
2020-01-07 07:00:00 3.4 12 Sudeste 18 Sur 0 -- -- 54
2020-01-07 06:00:00 2.5 8 Sur 21 Sur 0 -- -- 53
2020-01-07 05:00:00 1.7 4 Sudeste 18 Sur 0 -- -- 56
2020-01-07 04:00:00 0.3 10 Sur 13 Sur 0 -- -- 64
2020-01-07 03:00:00 1.4 5 Sudeste 17 Sur 0 -- -- 62
2020-01-07 02:00:00 2.4 15 Sur 18 Sur 0 -- -- 52
2020-01-07 01:00:00 2.2 14 Sur 17 Sur 0 -- -- 57
2020-01-07 00:00:00 2.2 13 Sudeste 16 Sudeste 0 -- -- 57
2020-01-06 23:00:00 2.3 8 Sudeste 10 Sudeste 0 -- -- 60
2020-01-06 22:00:00 1.8 6 Sudeste 14 Sudeste 0 -- -- 65
2020-01-06 21:00:00 3 12 Sudeste 20 Sur 0 -- -- 60
2020-01-06 20:00:00 2.6 12 Sur 22 Sur 0 -- -- 68
2020-01-06 19:00:00 3.8 15 Sur 20 Sur 0 -- -- 72
2020-01-06 18:00:00 7.7 0 Calma 8 Noroeste 0 -- -- 72
2020-01-06 17:00:00 9.5 4 Oeste 14 Noroeste 0 -- -- 66
2020-01-06 16:00:00 11.7 4 Oeste 15 Noroeste 0 -- -- 60
2020-01-06 15:00:00 11.5 12 Noroeste 16 Noroeste 0 -- -- 60
2020-01-06 14:00:00 13.7 4 Norte 13 Oeste 0 -- -- 38
2020-01-06 13:00:00 13.3 4 Norte 9 Este 0 -- -- 33
2020-01-06 12:00:00 11.3 3 Noroeste 6 Sur 0 -- -- 33
2020-01-06 11:00:00 8.6 6 Sur 15 Sur 0 -- -- 45
2020-01-06 10:00:00 3.8 14 Sur 22 Sur 0 -- -- 50